createdAt,value
2017-07-16T00:00:09.565Z,6.00
2017-07-16T00:02:38.027Z,5.90
2017-07-16T00:05:06.493Z,5.40
2017-07-16T00:07:34.937Z,5.40
2017-07-16T00:10:03.861Z,5.23
2017-07-16T00:12:32.345Z,5.90
2017-07-16T00:15:00.843Z,5.33
2017-07-16T00:17:29.744Z,6.80
2017-07-16T00:19:58.777Z,6.37
2017-07-16T00:22:27.207Z,7.70
2017-07-16T00:24:55.708Z,7.43
2017-07-16T00:27:24.534Z,5.70
2017-07-16T00:29:52.972Z,5.27
2017-07-16T00:32:21.445Z,5.87
2017-07-16T00:34:50.641Z,6.93
2017-07-16T00:37:19.109Z,5.30
2017-07-16T00:39:47.542Z,6.37
2017-07-16T00:42:16.378Z,6.23
2017-07-16T00:44:45.440Z,5.13
2017-07-16T00:47:13.871Z,5.60
2017-07-16T00:49:42.838Z,6.40
2017-07-16T00:52:11.893Z,6.93
2017-07-16T00:54:40.340Z,5.97
2017-07-16T00:57:09.184Z,7.17
2017-07-16T00:59:38.055Z,5.77
2017-07-16T01:02:07.466Z,6.37
2017-07-16T01:04:36.293Z,6.23
2017-07-16T01:07:05.115Z,6.57
2017-07-16T01:09:34.143Z,6.50
2017-07-16T01:12:02.581Z,5.50
2017-07-16T01:14:31.013Z,7.37
2017-07-16T01:16:59.477Z,5.90
2017-07-16T01:19:28.138Z,6.93
2017-07-16T01:21:56.963Z,8.47
2017-07-16T01:24:25.427Z,7.27
2017-07-16T01:26:54.909Z,6.10
2017-07-16T01:29:23.722Z,6.90
2017-07-16T01:31:52.159Z,8.40
2017-07-16T01:34:20.640Z,7.33
2017-07-16T01:36:49.862Z,6.80
2017-07-16T01:39:18.737Z,6.77
2017-07-16T01:41:47.881Z,7.90
2017-07-16T01:44:16.321Z,7.23
2017-07-16T01:46:44.766Z,6.47
2017-07-16T01:49:13.268Z,6.00
2017-07-16T01:51:41.700Z,6.70
2017-07-16T01:54:10.131Z,6.80
2017-07-16T01:56:38.264Z,5.43
2017-07-16T01:59:06.782Z,6.33
2017-07-16T02:01:35.215Z,5.77
2017-07-16T02:04:03.647Z,5.87
2017-07-16T02:06:32.141Z,6.10
2017-07-16T02:09:00.987Z,6.50
2017-07-16T02:11:29.430Z,6.70
2017-07-16T02:13:58.301Z,6.17
2017-07-16T02:16:26.733Z,7.80
2017-07-16T02:18:55.641Z,5.90
2017-07-16T02:21:24.073Z,5.47
2017-07-16T02:23:52.489Z,6.30
2017-07-16T02:26:21.743Z,6.90
2017-07-16T02:28:50.171Z,5.80
2017-07-16T02:31:19.011Z,7.20
2017-07-16T02:33:47.498Z,5.83
2017-07-16T02:36:15.931Z,5.13
2017-07-16T02:38:45.132Z,5.70
2017-07-16T02:41:13.617Z,5.63
2017-07-16T02:43:42.828Z,6.20
2017-07-16T02:46:11.263Z,6.43
2017-07-16T02:48:40.137Z,6.10
2017-07-16T02:51:08.582Z,5.93
2017-07-16T02:53:37.405Z,6.33
2017-07-16T02:56:06.401Z,5.97
2017-07-16T02:58:34.817Z,5.67
2017-07-16T03:01:03.851Z,6.03
2017-07-16T03:03:32.281Z,5.93
2017-07-16T03:06:01.163Z,6.03
2017-07-16T03:08:30.369Z,6.33
2017-07-16T03:10:59.903Z,6.10
2017-07-16T03:13:28.739Z,5.60
2017-07-16T03:15:57.175Z,6.00
2017-07-16T03:18:25.644Z,5.73
2017-07-16T03:20:54.583Z,5.50
2017-07-16T03:23:23.408Z,5.20
2017-07-16T03:25:52.653Z,5.37
2017-07-16T03:28:21.493Z,5.90
2017-07-16T03:30:49.903Z,4.63
2017-07-16T03:33:18.384Z,5.57
2017-07-16T03:35:46.958Z,6.90
2017-07-16T03:38:15.393Z,6.27
2017-07-16T03:40:44.126Z,5.63
2017-07-16T03:43:12.552Z,4.57
2017-07-16T03:45:41.596Z,6.00
2017-07-16T03:48:10.677Z,7.03
2017-07-16T03:50:39.489Z,5.60
2017-07-16T03:53:08.356Z,5.50
2017-07-16T03:55:36.796Z,5.67
2017-07-16T03:58:06.184Z,5.60
2017-07-16T04:00:35.052Z,5.20
2017-07-16T04:03:03.480Z,4.20
2017-07-16T04:05:32.311Z,4.50
2017-07-16T04:08:02.031Z,4.57
2017-07-16T04:10:31.099Z,5.23
2017-07-16T04:12:59.939Z,5.83
2017-07-16T04:15:28.372Z,5.10
2017-07-16T04:17:57.272Z,5.37
2017-07-16T04:20:26.466Z,5.30
2017-07-16T04:22:55.095Z,5.37
2017-07-16T04:25:23.574Z,6.20
2017-07-16T04:27:52.424Z,5.47
2017-07-16T04:30:21.302Z,6.10
2017-07-16T04:32:50.147Z,4.23
2017-07-16T04:35:18.597Z,5.70
2017-07-16T04:37:47.071Z,4.77
2017-07-16T04:40:15.504Z,5.20
2017-07-16T04:42:44.114Z,5.27
2017-07-16T04:45:12.988Z,5.90
2017-07-16T04:47:41.439Z,4.77
2017-07-16T04:50:10.069Z,5.90
2017-07-16T04:52:38.932Z,4.80
2017-07-16T04:55:07.356Z,4.77
2017-07-16T04:57:36.261Z,4.60
2017-07-16T05:00:04.697Z,6.33
2017-07-16T05:02:33.155Z,4.13
2017-07-16T05:05:01.828Z,6.07
2017-07-16T05:07:30.396Z,3.30
2017-07-16T05:09:59.224Z,5.17
2017-07-16T05:12:28.151Z,3.67
2017-07-16T05:14:56.619Z,4.07
2017-07-16T05:17:25.826Z,3.20
2017-07-16T05:19:55.071Z,3.17
2017-07-16T05:22:23.515Z,5.03
2017-07-16T05:24:52.712Z,3.60
2017-07-16T05:27:22.205Z,4.20
2017-07-16T05:29:50.313Z,4.80
2017-07-16T05:32:19.142Z,4.70
2017-07-16T05:34:48.024Z,5.10
2017-07-16T05:37:16.981Z,4.30
2017-07-16T05:39:45.602Z,3.53
2017-07-16T05:42:14.093Z,4.77
2017-07-16T05:44:42.522Z,3.73
2017-07-16T05:47:11.496Z,3.50
2017-07-16T05:49:40.374Z,3.10
2017-07-16T05:52:09.590Z,3.47
2017-07-16T05:54:38.020Z,3.40
2017-07-16T05:57:07.126Z,3.13
2017-07-16T05:59:35.952Z,2.97
2017-07-16T06:02:05.186Z,2.87
2017-07-16T06:04:34.215Z,3.53
2017-07-16T06:07:02.769Z,2.53
2017-07-16T06:09:31.263Z,3.17
2017-07-16T06:12:00.487Z,3.10
2017-07-16T06:14:29.325Z,3.60
2017-07-16T06:16:57.774Z,3.10
2017-07-16T06:19:26.963Z,2.70
2017-07-16T06:21:55.484Z,3.80
2017-07-16T06:24:23.924Z,5.30
2017-07-16T06:26:52.761Z,2.80
2017-07-16T06:29:21.257Z,4.13
2017-07-16T06:31:49.685Z,4.40
2017-07-16T06:34:18.907Z,4.90
2017-07-16T06:36:47.790Z,4.30
2017-07-16T06:39:16.612Z,3.10
2017-07-16T06:41:45.041Z,3.57
2017-07-16T06:44:13.920Z,4.77
2017-07-16T06:46:42.537Z,4.43
2017-07-16T06:49:11.008Z,3.63
2017-07-16T06:51:39.848Z,3.20
2017-07-16T06:54:08.288Z,2.80
2017-07-16T06:56:37.156Z,4.03
2017-07-16T06:59:06.199Z,2.60
2017-07-16T07:01:35.649Z,3.10
2017-07-16T07:04:04.526Z,3.40
2017-07-16T07:06:33.383Z,3.93
2017-07-16T07:09:01.819Z,3.83
2017-07-16T07:11:30.832Z,3.40
2017-07-16T07:13:59.672Z,2.60
2017-07-16T07:16:28.108Z,2.90
2017-07-16T07:18:57.331Z,2.73
2017-07-16T07:21:25.773Z,2.63
2017-07-16T07:23:54.659Z,3.60
2017-07-16T07:26:23.843Z,3.33
2017-07-16T07:28:52.681Z,3.40
2017-07-16T07:31:21.316Z,3.30
2017-07-16T07:33:50.349Z,3.10
2017-07-16T07:36:19.540Z,3.97
2017-07-16T07:38:48.037Z,2.60
2017-07-16T07:41:16.520Z,2.30
2017-07-16T07:43:45.359Z,2.93
2017-07-16T07:46:14.189Z,4.03
2017-07-16T07:48:43.421Z,2.80
2017-07-16T07:51:12.260Z,2.10
2017-07-16T07:53:41.137Z,1.80
2017-07-16T07:56:09.593Z,2.10
2017-07-16T07:58:38.780Z,1.20
2017-07-16T08:01:07.647Z,2.00
2017-07-16T08:03:36.084Z,1.87
2017-07-16T08:06:04.515Z,2.30
2017-07-16T08:08:33.020Z,1.27
2017-07-16T08:11:01.448Z,1.50
2017-07-16T08:13:30.072Z,2.20
2017-07-16T08:15:58.554Z,2.50
2017-07-16T08:18:26.992Z,2.00
2017-07-16T08:20:55.887Z,1.43
2017-07-16T08:23:25.148Z,1.33
2017-07-16T08:25:53.581Z,2.20
2017-07-16T08:28:22.080Z,2.57
2017-07-16T08:30:50.517Z,1.77
2017-07-16T08:33:19.346Z,1.87
2017-07-16T08:35:47.837Z,1.63
2017-07-16T08:38:16.673Z,1.73
2017-07-16T08:40:45.506Z,1.40
2017-07-16T08:43:14.381Z,1.87
2017-07-16T08:45:43.816Z,1.90
2017-07-16T08:48:12.249Z,2.37
2017-07-16T08:50:41.121Z,2.70
2017-07-16T08:53:10.496Z,2.47
2017-07-16T08:55:39.581Z,1.43
2017-07-16T08:58:08.444Z,1.80
2017-07-16T09:00:37.279Z,1.90
2017-07-16T09:03:05.771Z,2.30
2017-07-16T09:05:34.607Z,2.00
2017-07-16T09:08:03.265Z,1.70
2017-07-16T09:10:31.738Z,1.40
2017-07-16T09:13:01.338Z,1.63
2017-07-16T09:15:30.193Z,2.80
2017-07-16T09:17:59.016Z,1.40
2017-07-16T09:20:28.219Z,1.70
2017-07-16T09:22:57.496Z,2.03
2017-07-16T09:25:26.335Z,4.27
2017-07-16T09:27:55.301Z,2.23
2017-07-16T09:30:23.917Z,1.37
2017-07-16T09:32:52.356Z,2.17
2017-07-16T09:35:20.784Z,3.53
2017-07-16T09:37:50.061Z,2.07
2017-07-16T09:40:18.929Z,1.83
2017-07-16T09:42:47.393Z,1.70
2017-07-16T09:45:15.893Z,1.93
2017-07-16T09:47:45.089Z,2.50
2017-07-16T09:50:13.524Z,2.37
2017-07-16T09:52:43.332Z,2.90
2017-07-16T09:55:11.785Z,2.97
2017-07-16T09:57:40.904Z,2.20
2017-07-16T10:00:09.536Z,2.40
2017-07-16T10:02:38.432Z,2.20
2017-07-16T10:05:08.198Z,1.97
2017-07-16T10:07:37.596Z,2.43
2017-07-16T10:10:06.433Z,1.93
2017-07-16T10:12:35.640Z,2.53
2017-07-16T10:15:04.478Z,1.90
2017-07-16T10:17:33.153Z,1.60
2017-07-16T10:20:01.985Z,1.63
2017-07-16T10:22:31.302Z,1.73
2017-07-16T10:25:00.145Z,1.50
2017-07-16T10:27:28.993Z,2.10
2017-07-16T10:29:57.885Z,2.07
2017-07-16T10:32:26.321Z,1.67
2017-07-16T10:34:55.192Z,1.90
2017-07-16T10:37:23.633Z,2.03
2017-07-16T10:39:52.355Z,1.60
2017-07-16T10:42:21.575Z,1.30
2017-07-16T10:44:50.019Z,1.43
2017-07-16T10:47:18.502Z,1.67
2017-07-16T10:49:46.952Z,2.20
2017-07-16T10:52:15.463Z,2.30
2017-07-16T10:54:44.107Z,1.33
2017-07-16T10:57:12.545Z,2.10
2017-07-16T10:59:41.085Z,2.17
2017-07-16T11:02:09.527Z,2.10
2017-07-16T11:04:37.959Z,1.77
2017-07-16T11:07:06.475Z,2.20
2017-07-16T11:09:35.210Z,2.40
2017-07-16T11:12:03.635Z,2.60
2017-07-16T11:14:32.181Z,1.77
2017-07-16T11:17:00.788Z,3.10
2017-07-16T11:19:29.625Z,2.20
2017-07-16T11:21:58.514Z,1.93
2017-07-16T11:24:26.996Z,2.37
2017-07-16T11:26:55.871Z,3.07
2017-07-16T11:29:24.796Z,2.23
2017-07-16T11:31:53.629Z,3.27
2017-07-16T11:34:22.086Z,2.33
2017-07-16T11:36:50.559Z,2.07
2017-07-16T11:39:19.776Z,2.67
2017-07-16T11:41:48.270Z,2.90
2017-07-16T11:44:17.406Z,2.47
2017-07-16T11:46:46.243Z,1.80
2017-07-16T11:49:14.705Z,3.70
2017-07-16T11:51:43.415Z,3.10
2017-07-16T11:54:12.281Z,2.30
2017-07-16T11:56:41.197Z,2.40
2017-07-16T11:59:09.650Z,2.03
2017-07-16T12:01:38.085Z,1.80
2017-07-16T12:04:06.560Z,2.30
2017-07-16T12:06:35.440Z,1.83
2017-07-16T12:09:03.622Z,1.50
2017-07-16T12:11:32.092Z,1.67
2017-07-16T12:14:00.595Z,2.40
2017-07-16T12:16:29.481Z,2.23
2017-07-16T12:18:57.926Z,1.93
2017-07-16T12:21:26.362Z,2.00
2017-07-16T12:23:55.221Z,2.43
2017-07-16T12:26:24.062Z,1.90
2017-07-16T12:28:53.761Z,2.70
2017-07-16T12:31:22.590Z,2.00
2017-07-16T12:33:51.806Z,1.80
2017-07-16T12:36:20.644Z,2.13
2017-07-16T12:38:49.081Z,1.77
2017-07-16T12:41:17.564Z,2.00
2017-07-16T12:43:46.216Z,1.83
2017-07-16T12:46:15.576Z,1.80
2017-07-16T12:48:44.073Z,1.60
2017-07-16T12:51:12.944Z,1.60
2017-07-16T12:53:41.782Z,2.20
2017-07-16T12:56:10.310Z,2.27
2017-07-16T12:58:39.140Z,1.90
2017-07-16T13:01:07.584Z,2.00
2017-07-16T13:03:36.461Z,2.40
2017-07-16T13:06:04.886Z,2.57
2017-07-16T13:08:33.748Z,1.70
2017-07-16T13:11:02.721Z,1.37
2017-07-16T13:13:32.047Z,1.90
2017-07-16T13:16:01.631Z,2.90
2017-07-16T13:18:30.481Z,3.93
2017-07-16T13:20:58.919Z,1.63
2017-07-16T13:23:27.806Z,1.53
2017-07-16T13:25:56.286Z,1.60
2017-07-16T13:28:24.727Z,1.67
2017-07-16T13:30:52.886Z,2.20
2017-07-16T13:33:21.329Z,1.80
2017-07-16T13:35:49.817Z,1.60
2017-07-16T13:38:18.291Z,1.80
2017-07-16T13:40:47.159Z,1.40
2017-07-16T13:43:15.771Z,2.00
2017-07-16T13:45:44.223Z,2.03
2017-07-16T13:48:13.110Z,3.50
2017-07-16T13:50:41.537Z,1.80
2017-07-16T13:53:10.363Z,3.00
2017-07-16T13:55:38.833Z,4.07
2017-07-16T13:58:07.266Z,2.20
2017-07-16T14:00:36.136Z,1.87
2017-07-16T14:03:04.613Z,2.13
2017-07-16T14:05:33.464Z,2.73
2017-07-16T14:08:01.960Z,1.23
2017-07-16T14:10:30.391Z,2.00
2017-07-16T14:13:00.527Z,2.40
2017-07-16T14:15:29.413Z,2.50
2017-07-16T14:18:00.661Z,2.97
2017-07-16T14:23:06.835Z,3.80
2017-07-16T14:25:36.179Z,2.33
2017-07-16T14:28:04.825Z,3.27
2017-07-16T14:30:34.271Z,2.30
2017-07-16T14:33:03.244Z,2.00
2017-07-16T14:35:31.685Z,1.67
2017-07-16T14:38:00.171Z,3.63
2017-07-16T14:40:29.609Z,3.17
2017-07-16T14:43:00.083Z,1.50
2017-07-16T14:45:29.296Z,2.60
2017-07-16T14:47:57.737Z,2.43
2017-07-16T14:50:27.027Z,2.00
2017-07-16T14:52:55.723Z,1.80
2017-07-16T14:55:24.156Z,3.20
2017-07-16T14:57:52.688Z,2.13
2017-07-16T15:00:21.171Z,1.90
2017-07-16T15:02:50.961Z,1.57
2017-07-16T15:05:19.794Z,2.40
2017-07-16T15:07:50.028Z,1.53
2017-07-16T15:10:18.870Z,2.10
2017-07-16T15:12:47.743Z,2.23
2017-07-16T15:15:16.594Z,3.87
2017-07-16T15:17:45.885Z,2.00
2017-07-16T15:20:14.504Z,1.50
2017-07-16T15:22:42.936Z,2.00
2017-07-16T15:25:11.604Z,3.10
2017-07-16T15:27:40.135Z,2.07
2017-07-16T15:30:09.001Z,1.60
2017-07-16T15:32:37.891Z,1.80
2017-07-16T15:35:07.830Z,1.90
2017-07-16T15:37:36.341Z,1.80
2017-07-16T15:40:06.293Z,1.73
2017-07-16T15:42:35.592Z,2.10
2017-07-16T15:45:04.673Z,1.70
2017-07-16T15:47:33.099Z,1.40
2017-07-16T15:50:01.993Z,1.20
2017-07-16T15:52:30.887Z,1.50
2017-07-16T15:54:59.854Z,1.90
2017-07-16T15:57:28.689Z,1.80
2017-07-16T15:59:57.550Z,1.83
2017-07-16T16:02:26.443Z,1.70
2017-07-16T16:04:54.881Z,2.27
2017-07-16T16:07:23.365Z,2.80
2017-07-16T16:09:52.275Z,1.70
2017-07-16T16:12:21.100Z,2.30
2017-07-16T16:14:50.390Z,2.47
2017-07-16T16:17:19.209Z,1.70
2017-07-16T16:19:48.544Z,1.47
2017-07-16T16:22:17.443Z,1.73
2017-07-16T16:24:46.310Z,2.60
2017-07-16T16:27:14.761Z,1.63
2017-07-16T16:29:43.259Z,2.00
2017-07-16T16:32:12.857Z,1.80
2017-07-16T16:34:42.465Z,2.33
2017-07-16T16:37:11.130Z,1.83
2017-07-16T16:39:39.579Z,1.73
2017-07-16T16:42:08.489Z,1.57
2017-07-16T16:44:36.919Z,2.17
2017-07-16T16:47:08.821Z,2.53
2017-07-16T16:49:38.059Z,1.60
2017-07-16T16:52:06.503Z,1.93
2017-07-16T16:54:35.339Z,2.30
2017-07-16T16:57:04.838Z,2.57
2017-07-16T16:59:34.785Z,2.10
2017-07-16T17:02:03.222Z,2.00
2017-07-16T17:04:32.463Z,1.53
2017-07-16T17:07:00.897Z,2.80
2017-07-16T17:09:29.327Z,1.80
2017-07-16T17:11:58.235Z,2.27
2017-07-16T17:14:27.815Z,1.97
2017-07-16T17:16:56.858Z,2.00
2017-07-16T17:19:25.331Z,1.60
2017-07-16T17:21:54.182Z,2.60
2017-07-16T17:24:23.460Z,2.07
2017-07-16T17:26:52.549Z,2.10
2017-07-16T17:29:21.010Z,1.70
2017-07-16T17:31:50.313Z,2.80
2017-07-16T17:34:18.784Z,1.90
2017-07-16T17:36:47.742Z,2.17
2017-07-16T17:39:17.589Z,1.87
2017-07-16T17:41:46.479Z,2.00
2017-07-16T17:44:14.941Z,2.30
2017-07-16T17:46:44.301Z,1.83
2017-07-16T17:49:13.144Z,3.03
2017-07-16T17:51:42.541Z,2.60
2017-07-16T17:54:10.990Z,2.53
2017-07-16T17:56:39.148Z,2.20
2017-07-16T17:59:07.632Z,3.47
2017-07-16T18:01:36.455Z,1.90
2017-07-16T18:04:05.702Z,3.47
2017-07-16T18:06:34.151Z,1.90
2017-07-16T18:09:03.074Z,3.50
2017-07-16T18:11:31.964Z,2.00
2017-07-16T18:14:01.093Z,4.43
2017-07-16T18:16:30.770Z,2.60
2017-07-16T18:18:59.702Z,2.30
2017-07-16T18:21:29.666Z,2.23
2017-07-16T18:23:59.603Z,1.80
2017-07-16T18:26:28.576Z,4.10
2017-07-16T18:28:57.027Z,2.27
2017-07-16T18:31:27.862Z,2.17
2017-07-16T18:33:58.006Z,2.40
2017-07-16T18:36:26.833Z,2.07
2017-07-16T18:38:56.834Z,2.40
2017-07-16T18:41:25.687Z,2.60
2017-07-16T18:43:54.147Z,2.57
2017-07-16T18:46:23.193Z,1.60
2017-07-16T18:48:51.711Z,2.13
2017-07-16T18:51:20.560Z,2.43
2017-07-16T18:53:49.811Z,2.10
2017-07-16T18:56:19.218Z,2.07
2017-07-16T18:58:48.472Z,1.60
2017-07-16T19:01:17.895Z,1.87
2017-07-16T19:03:46.450Z,1.43
2017-07-16T19:06:14.923Z,2.03
2017-07-16T19:08:43.388Z,2.10
2017-07-16T19:11:11.882Z,2.80
2017-07-16T19:13:41.020Z,2.60
2017-07-16T19:16:10.417Z,2.87
2017-07-16T19:18:39.487Z,2.50
2017-07-16T19:21:09.143Z,2.17
2017-07-16T19:23:38.698Z,2.60
2017-07-16T19:26:07.181Z,2.53
2017-07-16T19:28:36.327Z,2.30
2017-07-16T19:31:05.258Z,2.20
2017-07-16T19:33:33.830Z,3.53
2017-07-16T19:36:03.346Z,2.70
2017-07-16T19:38:32.048Z,2.27
2017-07-16T19:41:02.467Z,1.97
2017-07-16T19:43:32.214Z,2.23
2017-07-16T19:46:02.784Z,3.70
2017-07-16T19:48:31.781Z,3.03
2017-07-16T19:51:00.298Z,2.00
2017-07-16T19:53:29.615Z,2.90
2017-07-16T19:55:58.601Z,2.30
2017-07-16T19:58:27.985Z,4.17
2017-07-16T20:00:57.029Z,2.13
2017-07-16T20:03:28.293Z,2.23
2017-07-16T20:05:57.183Z,2.10
2017-07-16T20:08:26.063Z,2.33
2017-07-16T20:10:55.928Z,3.10
2017-07-16T20:13:24.430Z,3.67
2017-07-16T20:15:53.276Z,3.67
2017-07-16T20:18:21.790Z,2.57
2017-07-16T20:20:50.241Z,2.90
2017-07-16T20:23:19.460Z,2.87
2017-07-16T20:25:48.342Z,3.40
2017-07-16T20:28:16.795Z,2.60
2017-07-16T20:30:46.170Z,2.80
2017-07-16T20:33:16.734Z,3.90
2017-07-16T20:35:45.945Z,3.00
2017-07-16T20:38:14.795Z,3.60
2017-07-16T20:40:43.343Z,4.37
2017-07-16T20:43:12.168Z,2.63
2017-07-16T20:45:40.632Z,4.40
2017-07-16T20:48:09.511Z,5.10
2017-07-16T20:50:38.932Z,2.90
2017-07-16T20:53:07.836Z,3.30
2017-07-16T20:55:36.677Z,2.80
2017-07-16T20:58:06.075Z,2.90
2017-07-16T21:00:34.539Z,2.70
2017-07-16T21:03:03.743Z,2.73
2017-07-16T21:05:32.241Z,3.93
2017-07-16T21:08:01.063Z,3.33
2017-07-16T21:10:30.122Z,2.70
2017-07-16T21:13:00.328Z,3.33
2017-07-16T21:15:29.166Z,2.77
2017-07-16T21:17:57.606Z,2.70
2017-07-16T21:20:26.114Z,2.63
2017-07-16T21:22:54.984Z,3.73
2017-07-16T21:25:23.417Z,2.60
2017-07-16T21:27:52.289Z,2.77
2017-07-16T21:30:21.154Z,2.97
2017-07-16T21:32:49.653Z,3.20
2017-07-16T21:35:18.109Z,4.87
2017-07-16T21:37:46.945Z,2.83
2017-07-16T21:40:16.044Z,3.50
2017-07-16T21:42:44.489Z,3.60
2017-07-16T21:45:12.919Z,5.03
2017-07-16T21:47:41.408Z,3.30
2017-07-16T21:50:09.855Z,4.13
2017-07-16T21:52:38.510Z,3.30
2017-07-16T21:55:07.789Z,4.23
2017-07-16T21:57:36.651Z,3.40
2017-07-16T22:00:05.703Z,5.00
2017-07-16T22:02:34.541Z,4.13
2017-07-16T22:05:05.055Z,4.70
2017-07-16T22:07:33.545Z,3.50
2017-07-16T22:10:02.395Z,4.73
2017-07-16T22:12:31.263Z,4.73
2017-07-16T22:15:01.535Z,4.13
2017-07-16T22:17:29.991Z,3.70
2017-07-16T22:19:59.419Z,3.60
2017-07-16T22:22:27.917Z,4.23
2017-07-16T22:24:56.789Z,3.80
2017-07-16T22:27:27.154Z,3.50
2017-07-16T22:29:55.655Z,4.43
2017-07-16T22:32:24.100Z,3.80
2017-07-16T22:34:52.578Z,4.17
2017-07-16T22:37:21.541Z,4.13
2017-07-16T22:39:50.376Z,4.03
2017-07-16T22:42:20.326Z,5.10
2017-07-16T22:44:49.192Z,4.80
2017-07-16T22:47:18.879Z,3.70
2017-07-16T22:49:47.347Z,5.33
2017-07-16T22:52:16.183Z,3.60
2017-07-16T22:54:44.617Z,3.63
2017-07-16T22:57:13.513Z,4.60
2017-07-16T22:59:42.350Z,3.70
2017-07-16T23:02:11.222Z,4.20
2017-07-16T23:04:40.518Z,3.90
2017-07-16T23:07:08.979Z,4.23
2017-07-16T23:09:37.813Z,4.87
2017-07-16T23:12:06.567Z,4.50
2017-07-16T23:14:35.117Z,7.00
2017-07-16T23:17:03.613Z,4.07
2017-07-16T23:19:32.454Z,3.60
2017-07-16T23:22:01.275Z,4.83
2017-07-16T23:24:30.198Z,4.10
2017-07-16T23:27:00.813Z,4.13
2017-07-16T23:29:29.497Z,3.83
2017-07-16T23:31:58.338Z,3.80
2017-07-16T23:34:26.794Z,4.03
2017-07-16T23:36:56.345Z,4.13
2017-07-16T23:39:26.833Z,3.40
2017-07-16T23:41:55.259Z,4.50
2017-07-16T23:44:24.463Z,4.57
2017-07-16T23:46:52.944Z,5.40
2017-07-16T23:49:21.793Z,4.20
2017-07-16T23:51:50.240Z,6.23
2017-07-16T23:54:18.721Z,5.23
2017-07-16T23:56:47.142Z,6.10
2017-07-16T23:59:15.582Z,4.67
